Andover, Iowa
Current Conditions -  °F | °C
As of 3:35 AM on Saturday 25 Oct 2014 (Local Time) from KSFY Reporting Station
Haze Haze  
Wind Chill: 15°   Ceiling: 800
Heat Index: 15°   Visibility: 3mi
Dew Point: 14°   Wind: 3mph
Humidity: 93%   Direction: 260°W
Pressure: 29.93"   Gusts: NA
Location:  41.98°N, 90.25°W
Report Text: KSFY 250835Z AUTO 26003KT 3SM BR OVC008 15/14 A2993 RMK AO2 T01510140
Loading
Personal Weather Stations






























Interactive Weather Map
Tropical Storm Tracking
New forecast layout! Learn more

10-Day Weather Forecast

Advertisements
Track Severe Weather on mobile